createdAt,value
2023-03-29T00:00:47.279Z,1.01
2023-03-29T00:03:17.258Z,0.88
2023-03-29T00:05:44.909Z,0.83
2023-03-29T00:08:14.766Z,0.83
2023-03-29T00:10:43.877Z,0.88
2023-03-29T00:13:12.967Z,0.74
2023-03-29T00:15:44.331Z,0.87
2023-03-29T00:18:15.936Z,0.82
2023-03-29T00:20:53.853Z,0.83
2023-03-29T00:23:20.395Z,0.77
2023-03-29T00:25:46.971Z,0.44
2023-03-29T00:28:14.730Z,0.59
2023-03-29T00:30:41.488Z,0.70
2023-03-29T00:33:08.657Z,0.56
2023-03-29T00:35:38.596Z,0.55
2023-03-29T00:38:08.292Z,0.51
2023-03-29T00:40:42.323Z,0.53
2023-03-29T00:43:15.932Z,0.47
2023-03-29T00:45:42.549Z,0.48
2023-03-29T00:48:15.874Z,0.22
2023-03-29T00:51:19.015Z,0.26
2023-03-29T00:53:59.063Z,0.24
2023-03-29T00:56:41.785Z,0.48
2023-03-29T00:59:38.185Z,0.43
2023-03-29T01:02:10.688Z,0.20
2023-03-29T01:04:45.638Z,0.27
2023-03-29T01:07:21.745Z,0.33
2023-03-29T01:09:56.000Z,0.35
2023-03-29T01:12:30.046Z,0.42
2023-03-29T01:15:02.529Z,0.51
2023-03-29T01:17:31.695Z,0.17
2023-03-29T01:20:19.151Z,0.37
2023-03-29T01:22:49.076Z,0.35
2023-03-29T01:26:00.217Z,0.31
2023-03-29T01:28:45.873Z,0.13
2023-03-29T01:31:21.962Z,0.09
2023-03-29T01:34:00.461Z,-0.02
2023-03-29T01:36:38.265Z,-0.21
2023-03-29T01:39:07.077Z,0.04
2023-03-29T01:42:05.626Z,-0.08
2023-03-29T01:44:47.395Z,0.05
2023-03-29T01:47:32.500Z,-0.04
2023-03-29T01:49:59.219Z,0.02
2023-03-29T01:52:37.604Z,-0.09
2023-03-29T01:55:14.858Z,0.04
2023-03-29T01:57:48.575Z,0.11
2023-03-29T02:00:19.212Z,0.15
2023-03-29T02:02:50.422Z,0.10
2023-03-29T02:05:22.458Z,0.14
2023-03-29T02:07:52.998Z,0.24
2023-03-29T02:10:21.424Z,0.21
2023-03-29T02:12:48.236Z,0.19
2023-03-29T02:15:21.468Z,0.17
2023-03-29T02:17:49.496Z,0.24
2023-03-29T02:20:20.570Z,0.28
2023-03-29T02:22:52.206Z,0.27
2023-03-29T02:25:22.531Z,0.30
2023-03-29T02:27:49.501Z,0.45
2023-03-29T02:30:18.797Z,0.40
2023-03-29T02:32:52.360Z,0.36
2023-03-29T02:35:34.364Z,0.38
2023-03-29T02:38:06.456Z,0.13
2023-03-29T02:40:37.687Z,0.17
2023-03-29T02:43:07.725Z,0.06
2023-03-29T02:45:39.947Z,0.25
2023-03-29T02:48:12.842Z,0.19
2023-03-29T02:50:44.963Z,0.31
2023-03-29T02:53:24.208Z,0.30
2023-03-29T02:55:51.762Z,0.36
2023-03-29T02:58:20.642Z,0.34
2023-03-29T03:00:49.057Z,0.35
2023-03-29T03:03:15.889Z,0.37
2023-03-29T03:05:47.754Z,0.42
2023-03-29T03:08:14.524Z,0.41
2023-03-29T03:10:41.453Z,0.39
2023-03-29T03:13:12.895Z,0.11
2023-03-29T03:15:42.970Z,-0.01
2023-03-29T03:18:10.642Z,-0.20
2023-03-29T03:20:37.306Z,-0.30
2023-03-29T03:23:08.978Z,-0.45
2023-03-29T03:25:38.186Z,-0.46
2023-03-29T03:28:05.096Z,-0.51
2023-03-29T03:30:31.734Z,-0.54
2023-03-29T03:32:58.318Z,-0.49
2023-03-29T03:35:25.295Z,-0.34
2023-03-29T03:37:54.195Z,-0.55
2023-03-29T03:40:20.871Z,-0.46
2023-03-29T03:42:50.022Z,-0.51
2023-03-29T03:45:16.725Z,-0.42
2023-03-29T03:47:48.670Z,-0.44
2023-03-29T03:50:15.482Z,-0.41
2023-03-29T03:52:44.850Z,-0.43
2023-03-29T03:55:12.114Z,-0.48
2023-03-29T03:57:38.659Z,-0.46
2023-03-29T04:00:21.069Z,-0.58
2023-03-29T04:02:48.544Z,-0.63
2023-03-29T04:05:20.534Z,-0.66
2023-03-29T04:07:52.606Z,-0.78
2023-03-29T04:10:19.292Z,-0.76
2023-03-29T04:12:46.009Z,-0.65
2023-03-29T04:15:17.871Z,-0.63
2023-03-29T04:17:47.490Z,-0.72
2023-03-29T04:20:18.809Z,-0.63
2023-03-29T04:22:45.380Z,-0.61
2023-03-29T04:25:14.445Z,-0.46
2023-03-29T04:27:44.796Z,-0.51
2023-03-29T04:30:12.318Z,-0.40
2023-03-29T04:32:38.928Z,-0.55
2023-03-29T04:35:06.157Z,-0.43
2023-03-29T04:37:35.198Z,-0.65
2023-03-29T04:40:02.535Z,-0.62
2023-03-29T04:42:29.454Z,-0.64
2023-03-29T04:44:58.552Z,-0.74
2023-03-29T04:47:25.236Z,-0.58
2023-03-29T04:49:51.824Z,-0.55
2023-03-29T04:52:18.402Z,-0.48
2023-03-29T04:54:47.511Z,-0.43
2023-03-29T04:57:17.101Z,-0.38
2023-03-29T04:59:46.462Z,-0.33
2023-03-29T05:02:15.607Z,-0.29
2023-03-29T05:04:42.216Z,-0.11
2023-03-29T05:07:08.872Z,-0.20
2023-03-29T05:09:35.671Z,-0.22
2023-03-29T05:12:04.981Z,-0.19
2023-03-29T05:14:31.564Z,-0.06
2023-03-29T07:25:48.305Z,3.32
2023-03-29T07:28:17.582Z,3.33
2023-03-29T07:30:44.200Z,3.32
2023-03-29T07:33:10.854Z,3.54
2023-03-29T07:35:38.333Z,3.65
2023-03-29T07:38:05.665Z,3.85
2023-03-29T07:40:34.622Z,4.02
2023-03-29T07:43:09.111Z,4.07
2023-03-29T07:45:42.360Z,3.78
2023-03-29T07:48:11.430Z,3.89
2023-03-29T07:50:40.363Z,4.01
2023-03-29T07:53:09.107Z,4.04
2023-03-29T07:55:35.978Z,4.13
2023-03-29T07:58:03.588Z,4.04
2023-03-29T08:00:33.172Z,3.97
2023-03-29T08:03:03.790Z,3.97
2023-03-29T08:05:41.192Z,4.01
2023-03-29T08:08:11.277Z,4.07
2023-03-29T08:10:56.116Z,4.19
2023-03-29T08:13:22.714Z,4.11
2023-03-29T08:15:50.318Z,4.09
2023-03-29T08:18:17.188Z,4.02
2023-03-29T08:20:46.070Z,4.01
2023-03-29T08:23:14.865Z,4.12
2023-03-29T08:25:49.859Z,4.09
2023-03-29T08:28:19.097Z,4.17
2023-03-29T08:30:48.205Z,4.18
2023-03-29T08:33:26.128Z,4.53
2023-03-29T08:35:53.174Z,4.62
2023-03-29T08:38:19.942Z,4.53
2023-03-29T08:40:48.835Z,4.53
2023-03-29T08:43:42.747Z,4.70
2023-03-29T08:46:15.773Z,4.78
2023-03-29T08:48:51.380Z,4.92
2023-03-29T08:51:23.105Z,5.25
2023-03-29T08:53:56.573Z,5.17
2023-03-29T08:56:28.069Z,5.22
2023-03-29T08:58:59.363Z,5.26
2023-03-29T09:01:38.329Z,5.08
2023-03-29T09:04:23.787Z,5.25
2023-03-29T09:06:51.779Z,5.54
2023-03-29T10:10:11.315Z,7.80
2023-03-29T10:12:38.039Z,8.00
2023-03-29T10:15:30.428Z,7.91
2023-03-29T10:18:07.476Z,7.66
2023-03-29T10:20:39.952Z,7.83
2023-03-29T10:23:10.870Z,7.99
2023-03-29T10:25:45.521Z,8.09
2023-03-29T10:28:21.214Z,8.14
2023-03-29T10:30:57.138Z,8.19
2023-03-29T10:33:29.730Z,8.22
2023-03-29T10:35:57.679Z,7.95
2023-03-29T10:38:28.002Z,8.18
2023-03-29T10:41:05.382Z,8.35
2023-03-29T10:43:41.855Z,8.33
2023-03-29T10:46:19.722Z,8.23
2023-03-29T10:48:51.991Z,7.69
2023-03-29T10:51:19.381Z,7.52
2023-03-29T10:53:46.654Z,7.59
2023-03-29T10:56:42.191Z,7.74
2023-03-29T10:59:17.985Z,8.23
2023-03-29T11:01:51.674Z,8.65
2023-03-29T11:04:46.500Z,8.76
2023-03-29T11:07:31.636Z,8.31
2023-03-29T11:10:24.717Z,8.90
2023-03-29T11:12:57.552Z,8.77
2023-03-29T11:15:55.122Z,8.63
2023-03-29T11:18:30.588Z,8.57
2023-03-29T13:12:43.679Z,10.27
2023-03-29T13:15:19.465Z,10.29
2023-03-29T13:17:52.245Z,10.29
2023-03-29T13:20:40.625Z,10.10
2023-03-29T13:23:19.245Z,9.70
2023-03-29T13:26:01.408Z,9.80
2023-03-29T13:28:33.165Z,9.94
2023-03-29T13:31:24.463Z,9.95
2023-03-29T18:40:56.160Z,8.35
2023-03-29T18:43:22.750Z,8.07
2023-03-29T18:45:53.981Z,8.17
2023-03-29T18:48:20.624Z,8.01
2023-03-29T18:50:47.216Z,8.24
2023-03-29T18:53:14.431Z,8.25
2023-03-29T18:55:44.988Z,8.36
2023-03-29T18:58:15.989Z,8.28
2023-03-29T19:00:42.920Z,8.36
2023-03-29T19:03:09.840Z,8.26
2023-03-29T19:05:39.987Z,8.20
2023-03-29T19:08:08.550Z,8.09
2023-03-29T19:10:39.262Z,8.05
2023-03-29T19:13:08.837Z,8.04
2023-03-29T19:15:40.432Z,8.09
2023-03-29T19:18:07.967Z,8.15
2023-03-29T19:20:40.846Z,8.07
2023-03-29T19:23:07.444Z,8.17
2023-03-29T19:25:36.545Z,8.10
2023-03-29T19:28:04.934Z,7.97
2023-03-29T19:30:34.844Z,7.85
2023-03-29T19:33:06.403Z,7.85
2023-03-29T19:35:33.032Z,7.87
2023-03-29T19:37:59.680Z,7.90
2023-03-29T19:40:28.524Z,7.97
2023-03-29T19:42:55.085Z,7.93
2023-03-29T19:45:23.888Z,7.96
2023-03-29T19:47:57.727Z,7.96
2023-03-29T19:50:27.675Z,8.05
2023-03-29T19:52:54.563Z,8.08
2023-03-29T19:55:21.809Z,7.68
2023-03-29T19:57:53.426Z,7.64
2023-03-29T20:00:24.433Z,7.86
2023-03-29T20:02:52.572Z,7.93
2023-03-29T20:05:21.625Z,8.05
2023-03-29T20:07:54.370Z,7.92
2023-03-29T20:10:21.212Z,8.06
2023-03-29T20:12:47.902Z,8.20
2023-03-29T20:15:16.953Z,8.19
2023-03-29T20:17:43.566Z,8.25
2023-03-29T20:20:11.998Z,8.22
2023-03-29T20:22:42.075Z,7.90
2023-03-29T20:25:11.952Z,8.15
2023-03-29T20:27:42.774Z,8.21
2023-03-29T20:30:16.472Z,7.99
2023-03-29T20:32:45.405Z,8.08
2023-03-29T20:35:12.260Z,8.08
2023-03-29T20:37:43.359Z,8.13
2023-03-29T20:40:11.255Z,8.15
2023-03-29T20:42:38.741Z,8.17
2023-03-29T20:45:06.618Z,8.20
2023-03-29T20:47:33.264Z,8.20
2023-03-29T20:50:04.134Z,8.20
2023-03-29T20:52:30.744Z,8.15
2023-03-29T20:55:01.860Z,8.05
2023-03-29T20:57:30.319Z,7.94
2023-03-29T20:59:59.401Z,7.97
2023-03-29T21:02:26.323Z,7.92
2023-03-29T21:05:00.187Z,7.86
2023-03-29T21:07:26.839Z,7.47
2023-03-29T21:09:54.160Z,7.52
2023-03-29T21:12:20.835Z,7.72
2023-03-29T21:14:49.716Z,7.80
2023-03-29T21:17:16.382Z,7.85
2023-03-29T21:19:42.903Z,7.90
2023-03-29T21:22:09.486Z,7.97
2023-03-29T21:24:38.558Z,8.04
2023-03-29T21:27:08.450Z,7.95
2023-03-29T21:29:37.235Z,7.73
2023-03-29T21:32:04.602Z,7.28
2023-03-29T21:34:33.656Z,7.60
2023-03-29T21:37:00.515Z,7.79
2023-03-29T21:39:27.805Z,7.80
2023-03-29T21:41:54.434Z,7.82
2023-03-29T21:44:21.049Z,7.90
2023-03-29T21:46:49.868Z,7.95
2023-03-29T21:49:19.454Z,7.99
2023-03-29T21:51:46.447Z,7.90
2023-03-29T21:54:15.577Z,7.96
2023-03-29T21:56:42.493Z,7.91
2023-03-29T21:59:09.100Z,7.61
2023-03-29T22:01:35.711Z,7.60
2023-03-29T22:04:05.186Z,7.70
2023-03-29T22:06:34.113Z,7.70
2023-03-29T22:09:06.384Z,7.54
2023-03-29T22:11:34.677Z,7.53
2023-03-29T22:14:04.121Z,7.35
2023-03-29T22:16:31.412Z,7.29
2023-03-29T22:18:58.262Z,7.23
2023-03-29T22:21:27.138Z,7.30
2023-03-29T22:23:58.519Z,7.26
2023-03-29T22:26:32.779Z,7.36
2023-03-29T22:29:00.410Z,7.33
2023-03-29T22:31:28.643Z,7.31
2023-03-29T22:33:55.782Z,7.39
2023-03-29T22:36:27.674Z,7.29
2023-03-29T22:38:55.065Z,7.22
2023-03-29T22:41:23.751Z,7.16
2023-03-29T22:43:53.947Z,7.06
2023-03-29T22:46:25.444Z,7.09
2023-03-29T22:48:54.399Z,7.12
2023-03-29T22:51:21.483Z,7.04
2023-03-29T22:53:48.096Z,7.02
2023-03-29T22:56:17.814Z,7.00
2023-03-29T22:58:46.903Z,6.87
2023-03-29T23:01:15.820Z,6.67
2023-03-29T23:03:42.447Z,6.72
2023-03-29T23:06:09.250Z,6.77
2023-03-29T23:08:38.374Z,6.68
2023-03-29T23:11:07.560Z,6.60
2023-03-29T23:13:36.303Z,6.67
2023-03-29T23:16:03.839Z,6.59
2023-03-29T23:18:34.950Z,6.70
2023-03-29T23:21:02.461Z,6.69
2023-03-29T23:23:31.917Z,6.73
2023-03-29T23:26:04.102Z,6.75
2023-03-29T23:28:34.547Z,6.60
2023-03-29T23:31:11.768Z,6.54
2023-03-29T23:33:41.257Z,6.60
2023-03-29T23:36:12.969Z,6.60
2023-03-29T23:38:43.542Z,6.70
2023-03-29T23:41:13.753Z,6.73
2023-03-29T23:43:42.478Z,6.78
2023-03-29T23:46:10.762Z,6.81
2023-03-29T23:48:42.286Z,6.89
2023-03-29T23:51:09.849Z,6.78
2023-03-29T23:53:38.848Z,6.81
2023-03-29T23:56:06.123Z,6.72
2023-03-29T23:58:35.994Z,6.73
